Date,TemperatureHighF,TemperatureAvgF,TemperatureLowF,DewpointHighF,DewpointAvgF,DewpointLowF,HumidityHigh,HumidityAvg,HumidityLow,PressureMaxIn,PressureMinIn,WindSpeedMaxMPH,WindSpeedAvgMPH,GustSpeedMaxMPH,PrecipitationSumIn
2013-5-1,80,67,51,58,53,49,92,64,37,0.00,40.00,6,2,16,0.00
2013-5-2,74,65,52,57,51,44,86,62,47,0.00,40.00,6,2,9,0.00
2013-5-3,76,65,55,55,45,37,86,52,26,0.00,40.00,6,2,19,0.00
2013-5-4,70,62,52,47,42,35,67,48,33,0.00,40.00,7,3,12,0.00
2013-5-5,74,62,48,42,37,28,79,43,23,0.00,40.00,9,3,19,0.00
2013-5-6,69,61,55,57,47,30,93,62,29,0.00,40.00,9,2,15,1.10
2013-5-7,68,61,55,61,55,52,95,80,62,0.00,40.00,9,3,19,0.00
2013-5-8,71,62,55,56,53,51,96,73,48,0.00,40.00,6,2,11,0.00
2013-5-9,79,64,49,57,53,48,98,71,41,0.00,40.00,8,2,16,0.00
2013-5-10,73,62,58,64,57,-100,98,89,68,0.00,40.00,12,2,25,3.94
2013-5-11,61,55,47,60,51,40,97,84,73,0.00,40.00,9,3,19,0.00
2013-5-12,53,46,35,38,31,-100,96,59,40,0.00,40.00,16,5,25,0.00
2013-5-13,56,45,35,35,31,26,93,62,34,0.00,40.00,9,2,17,0.00
2013-5-14,71,52,33,52,41,32,95,68,39,0.00,40.00,6,2,10,0.00
2013-5-15,86,75,60,60,57,52,79,56,37,0.00,40.00,11,4,25,0.00
2013-5-16,78,65,58,64,38,-100,97,74,40,0.00,40.00,7,2,15,1.65
2013-5-17,80,68,59,65,57,-100,98,80,50,0.00,40.00,6,1,10,0.00
2013-5-18,79,67,59,65,59,52,96,77,59,0.00,40.00,4,1,9,0.00
2013-5-19,80,68,58,67,62,-100,97,82,60,0.00,40.00,3,1,9,0.00
2013-5-20,80,71,62,71,67,61,99,88,68,0.00,40.00,3,1,9,0.00
2013-5-21,84,73,66,71,66,-100,98,83,52,0.00,40.00,4,2,10,0.00
2013-5-22,82,71,62,66,62,60,94,74,53,0.00,40.00,5,2,14,0.55
2013-5-23,75,64,49,63,58,42,98,81,50,0.00,40.00,14,3,25,0.00
2013-5-24,57,49,41,43,37,33,88,64,42,0.00,40.00,7,4,16,0.00
2013-5-25,65,50,33,40,36,32,97,65,32,0.00,40.00,8,2,17,0.00
2013-5-26,68,53,36,46,37,27,96,61,27,0.00,40.00,4,1,9,0.00
2013-5-27,66,55,44,51,45,40,92,71,45,0.00,40.00,4,1,12,0.55
2013-5-28,83,71,58,65,60,51,88,68,46,0.00,40.00,5,2,16,0.00
2013-5-29,85,75,66,64,61,59,80,62,44,0.00,40.00,7,2,19,0.00
2013-5-30,87,69,61,66,54,-100,96,68,43,0.00,40.00,6,1,17,0.00
2013-5-31,86,73,60,67,63,58,98,75,44,0.00,40.00,14,2,32,2.24